Metar Aviation Weather Data KORD Chicago O'hare International

36°F Temp
18°F Dewpoint
48% Humidity
Temperature
10 MPH
16 KM/H
9 KTS
330°
North North
West

Wind Speed
Partly Cloudy
Conditions
Pressure 1025.3 (hPa) - 30.26 (in)
Visibility 10.0 (mi) - 16 (km)

Current Conditions
KORD
Chicago O'hare International
Metar :KORD 210151Z 33009KT 10SM FEW045 02/M08 A3026 RMK AO2 SLP253 T00221078
Sat 20th October 20:51 pm

Chicago O'hare International
  Metar Aviation API Data Provided by https://www.checkwx.com/ PHP scripts by weather34.com ©2018